Terminal Aerodrome Forecast
Issued by NWS Mobile, AL

Home | Current Version | Previous Version | Text Only | Print | Product List | Glossary On
Versions: 1 2 3 4 5 6 7 8 9 10 11 12 13 14 15 16 17 18 19 20 21 22 23 24 25 26
000
FTUS44 KMOB 181100
TAFMOB
TAF
KMOB 181130Z 1812/1912 04003KT P6SM FEW100 SCT200
     FM181700 14005KT P6SM SCT050 SCT250
     FM190000 VRB02KT P6SM FEW040 BKN180=

USA.gov is the U.S. government's official web portal to all federal, state and local government web resources and services.